www.ballonnews.de

Ballonfahren hautnah "airleben"......

Fahrten im Heißluft + Gasballon....Ausbildungs- und Schulungsfahrten....

(+49) 0 54 52 - 93 54 93

(+49) 0 151 - 118 51 867

info@ballonnews.de

Freitag, 26. Januar 2018

1. Wiesengrund Ballooning 2018

2 tolle Fahrten aus dem Ostrachtal/Allgäu . Start Bad Hindelang bis hinein in das Füssener Becken und östlich der Ammergauer Alpen. Endlandungen in Bad Bayersoin und Peißenberg.

Sonntag, 21. Januar 2018

Donnerstag, 18. Januar 2018

Sehr starker Wind am Nachmittag....!

Windmitteilung vom FMO für den Nachmittag. Höhepunkt der Böentätigkeit zwischen 13 und 15 Uhr Ortszeit.
Böen um 65 Knoten werden erwartet. Mittelwind 45 Knoten.

Wer kann, der sollte besser zuhause bleiben.


Hier ein Auszug aus der Meldung:
EDDG Münster/Intl
TAF EDDG 180500Z 1806/1906 17013KT 9999 BKN030 TEMPO 1806/1808 4500 RADZ BKN008 BECMG 1806/1808 21020G35KT BECMG 1808/1810 23025G40KT TEMPO 1810/1814 26030G50KT PROB30 TEMPO 1812/1814 26045G65KT SHRAGS BKN014CB BECMG 1814/1817 26015G25KT BECMG 1817/1819 25010KT PROB30 TEMPO 1900/1906 25015G25KT SHRAGS BKN012CB=